createdAt,value
2022-11-14T00:01:09.860Z,6.03
2022-11-14T00:06:19.025Z,6.02
2022-11-14T00:11:30.661Z,6.01
2022-11-14T00:16:38.736Z,5.99
2022-11-14T00:21:46.678Z,5.99
2022-11-14T00:26:58.341Z,6.00
2022-11-14T00:32:06.557Z,5.97
2022-11-14T00:37:15.292Z,5.98
2022-11-14T00:42:26.584Z,5.99
2022-11-14T00:47:35.045Z,5.87
2022-11-14T00:52:43.164Z,6.00
2022-11-14T00:57:53.711Z,5.99
2022-11-14T01:03:02.141Z,5.99
2022-11-14T01:08:10.542Z,5.94
2022-11-14T01:13:22.148Z,5.89
2022-11-14T01:18:30.625Z,5.85
2022-11-14T01:23:39.690Z,5.82
2022-11-14T01:28:50.488Z,5.80
2022-11-14T01:33:59.460Z,5.73
2022-11-14T01:39:08.127Z,5.63
2022-11-14T01:44:21.818Z,5.60
2022-11-14T01:49:41.781Z,5.58
2022-11-14T01:54:53.183Z,5.59
2022-11-14T02:00:08.431Z,5.56
2022-11-14T02:05:19.265Z,5.60
2022-11-14T02:10:27.713Z,5.58
2022-11-14T02:15:39.068Z,5.56
2022-11-14T02:20:49.880Z,5.56
2022-11-14T02:25:58.370Z,5.53
2022-11-14T02:31:06.633Z,5.50
2022-11-14T02:36:17.740Z,5.46
2022-11-14T02:41:26.232Z,5.43
2022-11-14T02:46:34.608Z,5.37
2022-11-14T02:51:45.943Z,5.34
2022-11-14T02:56:54.169Z,5.31
2022-11-14T03:02:02.164Z,5.26
2022-11-14T03:07:13.220Z,5.23
2022-11-14T03:12:21.510Z,5.14
2022-11-14T03:17:29.607Z,5.09
2022-11-14T03:22:40.156Z,5.04
2022-11-14T03:27:48.875Z,4.98
2022-11-14T03:32:59.344Z,4.95
2022-11-14T03:38:10.126Z,4.92
2022-11-14T03:43:18.549Z,4.88
2022-11-14T03:48:30.635Z,4.83
2022-11-14T03:53:41.426Z,4.77
2022-11-14T03:58:49.635Z,4.74
2022-11-14T04:03:57.887Z,4.71
2022-11-14T04:09:09.338Z,4.67
2022-11-14T04:14:19.260Z,4.62
2022-11-14T04:19:28.222Z,4.40
2022-11-14T04:24:43.851Z,4.49
2022-11-14T04:29:52.620Z,4.48
2022-11-14T04:35:04.784Z,4.42
2022-11-14T04:40:19.948Z,4.37
2022-11-14T04:45:30.492Z,4.33
2022-11-14T04:50:38.844Z,4.27
2022-11-14T04:55:49.786Z,4.21
2022-11-14T05:00:58.427Z,4.17
2022-11-14T05:06:06.882Z,4.13
2022-11-14T05:11:21.486Z,4.10
2022-11-14T05:16:32.004Z,4.05
2022-11-14T05:21:40.226Z,4.01
2022-11-14T05:26:51.647Z,3.83
2022-11-14T05:32:00.994Z,3.90
2022-11-14T05:37:10.749Z,3.85
2022-11-14T05:42:22.046Z,3.81
2022-11-14T05:47:30.416Z,3.78
2022-11-14T05:52:39.974Z,3.69
2022-11-14T05:57:52.011Z,3.69
2022-11-14T06:03:01.571Z,3.71
2022-11-14T06:08:10.258Z,3.63
2022-11-14T06:13:20.972Z,3.63
2022-11-14T06:18:38.930Z,3.60
2022-11-14T06:23:48.023Z,3.54
2022-11-14T06:29:00.149Z,3.49
2022-11-14T06:34:08.938Z,3.44
2022-11-14T06:39:17.822Z,3.41
2022-11-14T06:44:31.031Z,3.34
2022-11-14T06:49:40.839Z,3.35
2022-11-14T06:54:49.770Z,3.29
2022-11-14T07:00:01.600Z,3.25
2022-11-14T07:05:18.564Z,3.23
2022-11-14T07:10:26.861Z,3.19
2022-11-14T07:15:37.896Z,3.18
2022-11-14T07:20:45.959Z,3.19
2022-11-14T07:25:54.521Z,3.19
2022-11-14T07:31:12.533Z,3.19
2022-11-14T07:36:22.164Z,3.17
2022-11-14T07:41:30.482Z,3.16
2022-11-14T07:46:43.028Z,3.17
2022-11-14T07:51:52.058Z,3.19
2022-11-14T07:57:00.471Z,3.17
2022-11-14T08:02:15.037Z,3.33
2022-11-14T08:07:23.788Z,3.45
2022-11-14T08:12:35.349Z,3.46
2022-11-14T08:17:46.691Z,3.61
2022-11-14T08:22:55.824Z,3.56
2022-11-14T08:28:04.507Z,3.57
2022-11-14T08:33:15.615Z,3.61
2022-11-14T08:38:24.242Z,3.54
2022-11-14T08:43:33.446Z,3.67
2022-11-14T08:48:44.288Z,3.70
2022-11-14T08:53:52.707Z,3.70
2022-11-14T08:59:01.364Z,3.85
2022-11-14T09:04:12.597Z,3.93
2022-11-14T09:09:21.606Z,4.01
2022-11-14T09:14:30.361Z,4.09
2022-11-14T09:19:41.859Z,4.32
2022-11-14T09:24:52.182Z,5.47
2022-11-14T09:30:00.860Z,6.63
2022-11-14T09:35:15.415Z,7.57
2022-11-14T09:40:24.204Z,7.92
2022-11-14T09:45:33.291Z,8.30
2022-11-14T09:50:49.230Z,8.63
2022-11-14T09:55:57.695Z,9.19
2022-11-14T10:01:10.582Z,9.69
2022-11-14T10:06:26.313Z,10.23
2022-11-14T10:11:37.698Z,10.40
2022-11-14T10:16:49.579Z,10.37
2022-11-14T10:22:13.375Z,10.33
2022-11-14T10:27:22.948Z,10.26
2022-11-14T10:32:42.994Z,10.18
2022-11-14T10:38:02.805Z,10.13
2022-11-14T10:43:19.536Z,10.14
2022-11-14T10:48:34.296Z,10.15
2022-11-14T10:53:53.491Z,10.16
2022-11-14T10:59:02.004Z,10.03
2022-11-14T11:04:23.250Z,10.05
2022-11-14T11:09:46.519Z,10.06
2022-11-14T11:15:11.009Z,10.10
2022-11-14T11:20:27.278Z,10.16
2022-11-14T11:25:37.748Z,10.20
2022-11-14T11:30:57.993Z,10.19
2022-11-14T11:36:08.441Z,10.21
2022-11-14T11:46:56.713Z,10.19
2022-11-14T11:52:07.599Z,10.25
2022-11-14T11:57:22.569Z,10.32
2022-11-14T12:02:31.595Z,10.40
2022-11-14T12:07:43.015Z,10.50
2022-11-14T12:13:05.937Z,10.59
2022-11-14T12:18:21.023Z,10.61
2022-11-14T12:23:49.240Z,10.69
2022-11-14T12:29:08.758Z,10.73
2022-11-14T12:34:29.609Z,10.79
2022-11-14T12:39:38.134Z,10.82
2022-11-14T12:44:49.009Z,10.86
2022-11-14T12:50:01.672Z,10.90
2022-11-14T12:55:35.516Z,10.97
2022-11-14T13:01:02.875Z,11.00
2022-11-14T13:06:15.462Z,10.95
2022-11-14T13:11:49.976Z,10.94
2022-11-14T13:17:26.083Z,10.97
2022-11-14T13:22:58.682Z,10.96
2022-11-14T13:28:24.882Z,10.92
2022-11-14T13:33:52.726Z,10.92
2022-11-14T13:39:23.627Z,10.88
2022-11-14T13:44:47.034Z,10.85
2022-11-14T13:50:14.410Z,10.87
2022-11-14T13:55:31.032Z,10.88
2022-11-14T14:00:54.075Z,10.88
2022-11-14T14:06:15.397Z,10.94
2022-11-14T14:11:42.858Z,11.22
2022-11-14T14:17:03.255Z,11.57
2022-11-14T14:22:18.660Z,11.60
2022-11-14T14:27:41.714Z,11.32
2022-11-14T14:33:06.715Z,11.15
2022-11-14T14:38:15.204Z,11.04
2022-11-14T14:43:33.253Z,10.95
2022-11-14T14:48:46.111Z,10.91
2022-11-14T14:53:56.135Z,10.81
2022-11-14T14:59:20.890Z,10.72
2022-11-14T15:04:32.755Z,10.64
2022-11-14T15:09:41.368Z,10.52
2022-11-14T15:14:50.926Z,10.41
2022-11-14T15:20:02.167Z,10.29
2022-11-14T15:25:21.270Z,10.13
2022-11-14T15:30:31.211Z,9.96
2022-11-14T15:35:42.537Z,9.80
2022-11-14T15:41:05.313Z,9.69
2022-11-14T15:46:29.353Z,9.56
2022-11-14T15:51:48.203Z,9.39
2022-11-14T15:56:58.336Z,9.27
2022-11-14T16:02:14.297Z,9.13
2022-11-14T16:07:28.811Z,9.00
2022-11-14T16:12:39.782Z,8.84
2022-11-14T16:17:50.406Z,8.69
2022-11-14T16:23:02.814Z,8.49
2022-11-14T16:28:16.243Z,8.37
2022-11-14T16:33:29.017Z,8.26
2022-11-14T16:38:43.426Z,8.16
2022-11-14T16:43:55.857Z,8.05
2022-11-14T16:49:06.870Z,7.94
2022-11-14T16:54:25.121Z,7.84
2022-11-14T16:59:34.497Z,7.75
2022-11-14T17:04:45.386Z,7.69
2022-11-14T17:10:00.020Z,7.61
2022-11-14T17:15:17.914Z,7.50
2022-11-14T17:20:28.828Z,7.40
2022-11-14T17:25:40.554Z,7.30
2022-11-14T17:30:50.398Z,7.20
2022-11-14T17:36:02.094Z,7.11
2022-11-14T17:41:15.856Z,7.01
2022-11-14T17:46:27.254Z,6.92
2022-11-14T17:51:37.616Z,6.88
2022-11-14T17:56:54.629Z,6.81
2022-11-14T18:02:04.371Z,6.71
2022-11-14T18:07:13.323Z,6.58
2022-11-14T18:12:24.962Z,6.47
2022-11-14T18:17:34.959Z,6.37
2022-11-14T18:22:45.101Z,6.27
2022-11-14T18:27:57.452Z,6.22
2022-11-14T18:33:07.006Z,6.18
2022-11-14T18:38:16.096Z,6.20
2022-11-14T18:43:30.002Z,6.20
2022-11-14T18:48:41.401Z,6.24
2022-11-14T18:53:52.812Z,6.26
2022-11-14T18:59:05.569Z,6.28
2022-11-14T19:04:19.986Z,6.29
2022-11-14T19:09:29.115Z,6.25
2022-11-14T19:14:41.967Z,6.24
2022-11-14T19:19:57.753Z,6.21
2022-11-14T19:25:09.467Z,6.17
2022-11-14T19:30:36.063Z,6.16
2022-11-14T19:35:45.700Z,6.14
2022-11-14T19:40:56.392Z,6.14
2022-11-14T19:46:10.514Z,6.18
2022-11-14T19:51:23.006Z,6.21
2022-11-14T19:56:32.332Z,6.24
2022-11-14T20:01:45.883Z,6.26
2022-11-14T20:06:54.734Z,6.26
2022-11-14T20:12:07.555Z,6.28
2022-11-14T20:17:20.369Z,6.29
2022-11-14T20:22:29.306Z,6.32
2022-11-14T20:27:40.408Z,6.33
2022-11-14T20:32:52.312Z,6.34
2022-11-14T20:38:04.640Z,6.35
2022-11-14T20:43:16.868Z,6.36
2022-11-14T20:48:29.525Z,6.36
2022-11-14T20:53:38.734Z,6.40
2022-11-14T20:58:48.638Z,6.41
2022-11-14T21:04:03.358Z,6.45
2022-11-14T21:09:16.268Z,6.45
2022-11-14T21:14:27.123Z,6.48
2022-11-14T21:25:04.228Z,6.52
2022-11-14T21:30:13.908Z,6.56
2022-11-14T21:35:26.456Z,6.58
2022-11-14T21:40:35.924Z,6.59
2022-11-14T21:45:46.310Z,6.61
2022-11-14T21:50:58.391Z,6.63
2022-11-14T21:56:11.717Z,6.62
2022-11-14T22:01:43.219Z,6.63
2022-11-14T22:06:54.949Z,6.64
2022-11-14T22:12:04.352Z,6.65
2022-11-14T22:17:16.408Z,6.57
2022-11-14T22:22:34.622Z,6.67
2022-11-14T22:27:43.543Z,6.69
2022-11-14T22:32:52.548Z,6.69
2022-11-14T22:38:05.037Z,6.71
2022-11-14T22:43:14.628Z,6.74
2022-11-14T22:48:23.838Z,6.72
2022-11-14T22:53:37.676Z,6.74
2022-11-14T22:58:47.788Z,6.71
2022-11-14T23:03:59.237Z,6.69
2022-11-14T23:09:11.193Z,6.68
2022-11-14T23:14:25.335Z,6.69
2022-11-14T23:19:34.023Z,6.67
2022-11-14T23:24:45.817Z,6.68
2022-11-14T23:29:55.391Z,6.69
2022-11-14T23:35:07.963Z,6.70
2022-11-14T23:40:21.329Z,6.72
2022-11-14T23:45:30.939Z,6.72
2022-11-14T23:50:40.415Z,6.75
2022-11-14T23:55:57.502Z,6.77
